Time;durP1;ratioP1;P1;durP2;ratioP2;P2;SDS_P1;SDS_P2;PMS_P1;PMS_P2;Temp;Humidity;BMP_temperature;BMP_pressure;BME280_temperature;BME280_humidity;BME280_pressure;Samples;Min_cycle;Max_cycle;Signal;HPM_P1;HPM_P2
2023/11/14 00:01:00;;;;;;;0.38;0.38;;;13.10;99.90;;;;;;4975573;28;20519;-78
2023/11/14 00:03:29;;;;;;;0.50;0.50;;;13.10;99.90;;;;;;4976871;28;20030;-77
2023/11/14 00:05:55;;;;;;;0.40;0.40;;;13.10;99.90;;;;;;4969354;28;20054;-76
2023/11/14 00:08:20;;;;;;;0.40;0.40;;;13.10;99.90;;;;;;4976592;28;20030;-77
2023/11/14 00:10:46;;;;;;;0.73;0.32;;;13.20;99.90;;;;;;4975929;28;20451;-77
2023/11/14 00:13:13;;;;;;;0.32;0.30;;;13.10;99.90;;;;;;4974895;28;20035;-77
2023/11/14 00:15:39;;;;;;;0.30;0.30;;;13.10;99.90;;;;;;4973435;28;20034;-76
2023/11/14 00:18:04;;;;;;;0.38;0.38;;;13.10;99.90;;;;;;4973541;28;20031;-78
2023/11/14 00:20:30;;;;;;;0.40;0.40;;;13.10;99.90;;;;;;4973014;28;20062;-77
2023/11/14 00:22:56;;;;;;;0.77;0.52;;;13.10;99.90;;;;;;4972394;28;20042;-77
2023/11/14 00:25:22;;;;;;;0.63;0.30;;;13.00;99.90;;;;;;4973726;28;20563;-76
2023/11/14 00:27:50;;;;;;;0.30;0.30;;;12.90;99.90;;;;;;4973609;28;20034;-76
2023/11/14 00:30:17;;;;;;;0.38;0.38;;;12.70;99.90;;;;;;4973695;28;20087;-77
2023/11/14 00:32:43;;;;;;;0.50;0.40;;;12.60;99.90;;;;;;4972774;28;20121;-77
2023/11/14 00:35:09;;;;;;;0.40;0.40;;;12.50;99.90;;;;;;4971364;28;20058;-77
2023/11/14 00:37:34;;;;;;;0.60;0.60;;;12.50;99.90;;;;;;4974493;28;20030;-77
2023/11/14 00:40:04;;;;;;;0.65;0.45;;;12.40;99.90;;;;;;4970131;28;20065;-77
2023/11/14 00:42:33;;;;;;;1.83;0.50;;;12.20;99.90;;;;;;4970037;28;20061;-76
2023/11/14 00:44:58;;;;;;;2.80;0.90;;;12.10;99.90;;;;;;4987960;28;20062;-77
2023/11/14 00:47:31;;;;;;;2.17;0.80;;;12.00;99.90;;;;;;4969340;28;20511;-77
2023/11/14 00:50:01;;;;;;;0.75;0.60;;;11.90;99.90;;;;;;4973132;28;20031;-76
2023/11/14 00:52:26;;;;;;;1.67;0.68;;;11.80;99.90;;;;;;4987962;28;20031;-76
2023/11/14 00:54:52;;;;;;;1.65;0.75;;;11.80;99.90;;;;;;4972326;28;20046;-76
2023/11/14 00:57:18;;;;;;;0.40;0.40;;;11.60;99.90;;;;;;4977085;28;20027;-76
2023/11/14 00:59:44;;;;;;;3.75;0.90;;;11.40;99.90;;;;;;4976071;28;20090;-76
2023/11/14 01:02:10;;;;;;;2.92;1.17;;;11.30;99.90;;;;;;4970383;28;20039;-76
2023/11/14 01:04:37;;;;;;;1.42;0.60;;;11.20;99.90;;;;;;4971740;28;20027;-77
2023/11/14 01:07:03;;;;;;;1.55;0.85;;;11.30;99.90;;;;;;4978521;28;20073;-76
2023/11/14 01:09:32;;;;;;;4.20;1.05;;;11.10;99.90;;;;;;4971745;28;20025;-75
2023/11/14 01:12:03;;;;;;;3.35;0.93;;;11.10;99.90;;;;;;4976120;28;20062;-76
2023/11/14 01:14:29;;;;;;;1.83;1.20;;;11.00;99.90;;;;;;4976500;28;20086;-75
2023/11/14 01:16:55;;;;;;;3.20;1.10;;;10.90;99.90;;;;;;4975985;28;20046;-75
2023/11/14 01:19:21;;;;;;;2.38;1.00;;;10.80;99.90;;;;;;4979003;28;20106;-76
2023/11/14 01:21:47;;;;;;;4.13;1.00;;;10.70;99.90;;;;;;4977399;28;20031;-76
2023/11/14 01:24:13;;;;;;;6.80;1.10;;;10.70;99.90;;;;;;4965114;28;20031;-75
2023/11/14 01:26:40;;;;;;;2.35;1.00;;;10.70;99.90;;;;;;4978134;28;20487;-76
2023/11/14 01:29:05;;;;;;;3.95;1.00;;;10.70;99.90;;;;;;4970936;28;20492;-76
2023/11/14 01:31:31;;;;;;;2.45;1.10;;;10.70;99.90;;;;;;4972403;28;20031;-76
2023/11/14 01:34:00;;;;;;;2.85;0.90;;;10.70;99.90;;;;;;4973796;28;20055;-76
2023/11/14 01:36:25;;;;;;;1.13;0.70;;;10.70;99.90;;;;;;4975996;28;20543;-76
2023/11/14 01:38:51;;;;;;;3.95;1.20;;;10.60;99.90;;;;;;4973881;28;20046;-75
2023/11/14 01:41:17;;;;;;;4.60;1.13;;;10.70;99.90;;;;;;4972790;28;20038;-75
2023/11/14 01:43:49;;;;;;;1.63;1.08;;;10.70;99.90;;;;;;4968796;28;20361;-75
2023/11/14 01:46:17;;;;;;;4.80;1.40;;;10.70;99.90;;;;;;4988041;28;20509;-75
2023/11/14 01:48:50;;;;;;;2.80;1.40;;;10.60;99.90;;;;;;4975301;28;20034;-75
2023/11/14 01:51:18;;;;;;;0.93;0.82;;;10.70;99.90;;;;;;4971846;28;20034;-75
2023/11/14 01:53:45;;;;;;;2.90;1.57;;;10.60;99.90;;;;;;4968169;28;20031;-76
2023/11/14 01:56:12;;;;;;;3.90;1.00;;;10.60;99.90;;;;;;4972874;28;20469;-76
2023/11/14 01:58:38;;;;;;;3.75;1.70;;;10.60;99.90;;;;;;4972083;28;20037;-76
2023/11/14 02:01:04;;;;;;;6.07;1.35;;;10.60;99.90;;;;;;4964618;28;20034;-76
2023/11/14 02:03:32;;;;;;;1.73;1.02;;;10.60;99.90;;;;;;4980227;28;20058;-75
2023/11/14 02:05:58;;;;;;;3.28;1.20;;;10.60;99.90;;;;;;4978070;28;21128;-75
2023/11/14 02:08:24;;;;;;;3.10;0.95;;;10.60;99.90;;;;;;4976268;28;20365;-76
2023/11/14 02:10:50;;;;;;;3.80;0.77;;;10.50;99.90;;;;;;4974783;28;20031;-76
2023/11/14 02:13:16;;;;;;;3.00;1.00;;;10.50;99.90;;;;;;4972769;28;20042;-76
2023/11/14 02:15:44;;;;;;;1.65;1.25;;;10.50;99.90;;;;;;4972895;28;20027;-75
2023/11/14 02:18:10;;;;;;;;;;;10.40;99.90;;;;;;4995298;28;20336;-75
2023/11/14 02:20:38;;;;;;;3.35;1.55;;;10.40;99.90;;;;;;4974553;28;19919;-76
2023/11/14 02:23:09;;;;;;;4.57;1.00;;;10.40;99.90;;;;;;4977024;28;20103;-76
2023/11/14 02:25:35;;;;;;;2.08;1.50;;;10.40;99.90;;;;;;4976171;28;20026;-75
2023/11/14 02:28:09;;;;;;;5.72;1.30;;;10.40;99.90;;;;;;4975511;28;20108;-75
2023/11/14 02:30:57;;;;;;;5.53;1.48;;;10.40;99.90;;;;;;4972483;28;20678;-74
2023/11/14 02:33:23;;;;;;;2.30;2.13;;;10.40;99.90;;;;;;4973156;28;20045;-76
2023/11/14 02:36:38;;;;;;;2.40;1.23;;;10.40;99.90;;;;;;4975757;28;20030;-75
2023/11/14 02:39:13;;;;;;;5.43;1.55;;;10.40;99.90;;;;;;4990402;28;20054;-78
2023/11/14 02:41:38;;;;;;;1.13;0.77;;;10.40;99.90;;;;;;4972454;28;20624;-75
2023/11/14 02:44:05;;;;;;;7.95;2.08;;;10.40;99.90;;;;;;4971594;28;20057;-75
2023/11/14 02:46:32;;;;;;;3.90;1.25;;;10.40;99.90;;;;;;4977725;28;20023;-74
2023/11/14 02:49:17;;;;;;;4.07;1.13;;;10.40;99.90;;;;;;4984605;28;20058;-74
2023/11/14 02:51:45;;;;;;;7.20;1.75;;;10.40;99.90;;;;;;4979328;28;20030;-76
2023/11/14 02:54:11;;;;;;;;;;;10.40;99.90;;;;;;4971513;28;20102;-75
2023/11/14 02:56:40;;;;;;;11.90;5.43;;;10.40;99.90;;;;;;4970144;28;19921;-74
2023/11/14 02:59:06;;;;;;;;;;;10.40;99.90;;;;;;4969429;28;20317;-75
2023/11/14 03:01:32;;;;;;;4.30;2.15;;;10.40;99.90;;;;;;4963810;28;19952;-75
2023/11/14 03:03:58;;;;;;;4.63;1.50;;;10.40;99.90;;;;;;4971804;28;20476;-75
2023/11/14 03:06:23;;;;;;;7.85;1.95;;;10.40;99.90;;;;;;4971048;28;20065;-75
2023/11/14 03:08:54;;;;;;;6.13;1.40;;;10.40;99.90;;;;;;4972589;28;20030;-75
2023/11/14 03:11:26;;;;;;;2.88;1.05;;;10.40;99.90;;;;;;4968440;28;20086;-76
2023/11/14 03:13:52;;;;;;;4.55;1.17;;;10.40;99.90;;;;;;4976405;28;20551;-76
2023/11/14 03:16:17;;;;;;;1.48;1.08;;;10.40;99.90;;;;;;4972937;28;20077;-76
2023/11/14 03:18:43;;;;;;;2.67;0.90;;;10.40;99.90;;;;;;4973891;28;20037;-76
2023/11/14 03:21:09;;;;;;;6.85;1.88;;;10.40;99.90;;;;;;4973719;28;20495;-76
2023/11/14 03:23:35;;;;;;;3.38;1.13;;;10.30;99.90;;;;;;4983925;28;20212;-76
2023/11/14 03:26:02;;;;;;;4.90;1.10;;;10.30;99.90;;;;;;4971063;28;20152;-77
2023/11/14 03:28:30;;;;;;;3.88;1.13;;;10.40;99.90;;;;;;4965579;28;20027;-76
2023/11/14 03:30:58;;;;;;;1.65;1.05;;;10.40;99.90;;;;;;4968975;28;20082;-75
2023/11/14 03:33:24;;;;;;;5.53;1.43;;;10.40;99.90;;;;;;4969547;28;20101;-76
2023/11/14 03:35:50;;;;;;;5.80;1.40;;;10.40;99.90;;;;;;4968296;28;20029;-76
2023/11/14 03:38:19;;;;;;;3.25;1.40;;;10.40;99.90;;;;;;4970070;28;20109;-76
2023/11/14 03:40:45;;;;;;;3.15;1.27;;;10.30;99.90;;;;;;4973418;28;20029;-76
2023/11/14 03:43:11;;;;;;;2.90;1.20;;;10.30;99.90;;;;;;4970766;28;20558;-75
2023/11/14 03:45:36;;;;;;;1.63;1.17;;;10.30;99.90;;;;;;4971271;28;20035;-76
2023/11/14 03:48:02;;;;;;;2.00;1.10;;;10.30;99.90;;;;;;4972313;28;20034;-75
2023/11/14 03:50:28;;;;;;;3.28;1.10;;;10.30;99.90;;;;;;4971447;28;20082;-75
2023/11/14 03:52:54;;;;;;;3.58;1.50;;;10.30;99.90;;;;;;4970802;28;20022;-75
2023/11/14 03:55:19;;;;;;;3.58;1.27;;;10.30;99.90;;;;;;4973969;28;20031;-75
2023/11/14 03:57:45;;;;;;;2.58;1.30;;;10.40;99.90;;;;;;4974519;28;20039;-75
2023/11/14 04:00:11;;;;;;;4.75;1.52;;;10.30;99.90;;;;;;4973586;28;20023;-77
2023/11/14 04:02:38;;;;;;;4.47;1.20;;;10.30;99.90;;;;;;4971889;28;20035;-76
2023/11/14 04:05:06;;;;;;;2.65;1.30;;;10.40;99.90;;;;;;4973798;28;20046;-77
2023/11/14 04:07:32;;;;;;;3.85;1.52;;;10.30;99.90;;;;;;4965649;28;20043;-76
2023/11/14 04:09:58;;;;;;;2.92;1.40;;;10.30;99.90;;;;;;4971870;28;20077;-76
2023/11/14 04:12:25;;;;;;;3.80;1.60;;;10.30;99.90;;;;;;4979109;28;20023;-76
2023/11/14 04:14:52;;;;;;;3.97;1.27;;;10.30;99.90;;;;;;4966714;28;20098;-76
2023/11/14 04:17:18;;;;;;;3.13;1.50;;;10.30;99.90;;;;;;4971894;28;20080;-76
2023/11/14 04:19:44;;;;;;;3.58;1.55;;;10.30;99.90;;;;;;4972209;28;20070;-76
2023/11/14 04:22:11;;;;;;;3.08;1.33;;;10.30;99.90;;;;;;4967073;28;20477;-75
2023/11/14 04:24:38;;;;;;;1.70;1.33;;;10.30;99.90;;;;;;4985150;28;20447;-76
2023/11/14 04:27:08;;;;;;;6.70;2.63;;;10.30;99.90;;;;;;4969268;28;20035;-76
2023/11/14 04:29:35;;;;;;;3.22;1.45;;;10.30;99.90;;;;;;4986399;28;20412;-76
2023/11/14 04:32:00;;;;;;;4.55;1.63;;;10.30;99.90;;;;;;4971852;28;20331;-76
2023/11/14 04:34:27;;;;;;;3.13;1.15;;;10.30;99.90;;;;;;4973275;28;20035;-76
2023/11/14 04:36:53;;;;;;;2.42;1.20;;;10.30;99.90;;;;;;4974993;28;20043;-77
2023/11/14 04:39:18;;;;;;;2.15;1.30;;;10.30;99.90;;;;;;4977772;28;20038;-76
2023/11/14 04:41:44;;;;;;;1.95;0.88;;;10.30;99.90;;;;;;4992552;28;20112;-77
2023/11/14 04:44:11;;;;;;;1.50;1.00;;;10.30;99.90;;;;;;4973376;28;20034;-76
2023/11/14 04:46:37;;;;;;;3.55;1.30;;;10.30;99.90;;;;;;4973847;28;20019;-75
2023/11/14 04:49:03;;;;;;;2.45;1.77;;;10.30;99.90;;;;;;4977262;28;20034;-77
2023/11/14 04:51:29;;;;;;;2.72;1.30;;;10.30;99.90;;;;;;4977729;28;20292;-76
2023/11/14 04:53:54;;;;;;;2.55;1.27;;;10.30;99.90;;;;;;4976314;28;20027;-76
2023/11/14 04:56:21;;;;;;;2.55;1.10;;;10.30;99.90;;;;;;4976389;28;20054;-76
2023/11/14 04:58:46;;;;;;;3.30;1.40;;;10.30;99.90;;;;;;4974523;28;20484;-75
2023/11/14 05:01:15;;;;;;;4.43;1.35;;;10.30;99.90;;;;;;4978943;28;20046;-76
2023/11/14 05:03:41;;;;;;;2.05;1.30;;;10.30;99.90;;;;;;4979584;28;20034;-75
2023/11/14 05:06:07;;;;;;;3.15;1.13;;;10.30;99.90;;;;;;4974651;28;20526;-76
2023/11/14 05:08:32;;;;;;;2.30;1.02;;;10.30;99.90;;;;;;4977242;28;20026;-76
2023/11/14 05:10:58;;;;;;;2.58;1.20;;;10.30;99.90;;;;;;4977015;28;20476;-76
2023/11/14 05:13:24;;;;;;;2.88;2.47;;;10.30;99.90;;;;;;4990657;28;20026;-76
2023/11/14 05:15:50;;;;;;;2.92;1.40;;;10.20;99.90;;;;;;4978613;28;20075;-75
2023/11/14 05:18:16;;;;;;;4.13;1.30;;;10.20;99.90;;;;;;4975355;28;21302;-77
2023/11/14 05:20:42;;;;;;;4.10;1.10;;;10.20;99.90;;;;;;4980915;28;20026;-76
2023/11/14 05:23:08;;;;;;;2.33;1.30;;;10.20;99.90;;;;;;4990554;28;20037;-76
2023/11/14 05:25:33;;;;;;;4.03;1.45;;;10.30;99.90;;;;;;4975419;28;20130;-76
2023/11/14 05:27:59;;;;;;;3.25;1.25;;;10.30;99.90;;;;;;4977158;28;20030;-76
2023/11/14 05:30:25;;;;;;;2.67;1.50;;;10.30;99.90;;;;;;4976461;28;20038;-77
2023/11/14 05:32:50;;;;;;;1.38;1.30;;;10.20;99.90;;;;;;4973750;28;20047;-76
2023/11/14 05:35:16;;;;;;;4.57;1.30;;;10.20;99.90;;;;;;4979574;28;20046;-76
2023/11/14 05:37:44;;;;;;;2.97;1.23;;;10.30;99.90;;;;;;4994644;28;20050;-76
2023/11/14 05:40:13;;;;;;;2.30;1.23;;;10.20;99.90;;;;;;4988246;28;20057;-76
2023/11/14 05:42:56;;;;;;;1.92;1.20;;;10.20;99.90;;;;;;4980988;28;20053;-75
2023/11/14 05:45:22;;;;;;;2.65;1.33;;;10.20;99.90;;;;;;4979207;28;20235;-76
2023/11/14 05:47:49;;;;;;;1.23;1.13;;;10.20;99.90;;;;;;4990057;28;20481;-76
2023/11/14 05:50:15;;;;;;;1.95;1.20;;;10.20;99.90;;;;;;4976257;28;20117;-75
2023/11/14 05:52:40;;;;;;;1.63;1.13;;;10.20;99.90;;;;;;4974952;28;20071;-75
2023/11/14 05:55:09;;;;;;;4.82;1.45;;;10.10;99.90;;;;;;4971876;28;20027;-76
2023/11/14 05:57:35;;;;;;;2.08;1.20;;;10.10;99.90;;;;;;4976814;28;20049;-75
2023/11/14 06:00:02;;;;;;;5.75;1.83;;;10.10;99.90;;;;;;4980520;28;20102;-75
2023/11/14 06:02:28;;;;;;;2.38;1.52;;;10.10;99.90;;;;;;4977543;28;20356;-75
2023/11/14 06:04:57;;;;;;;3.03;1.60;;;10.10;99.90;;;;;;4978103;28;20566;-75
2023/11/14 06:07:23;;;;;;;4.22;1.77;;;10.00;99.90;;;;;;4976030;28;20146;-77
2023/11/14 06:09:48;;;;;;;3.83;2.00;;;10.00;99.90;;;;;;4973099;28;20050;-79
2023/11/14 06:12:17;;;;;;;4.97;1.80;;;10.00;99.90;;;;;;4975151;28;20090;-76
2023/11/14 06:14:43;;;;;;;2.47;2.03;;;10.00;99.90;;;;;;4973693;28;20037;-76
2023/11/14 06:17:09;;;;;;;2.20;2.00;;;10.00;99.90;;;;;;4990694;28;20038;-78
2023/11/14 06:19:36;;;;;;;4.15;2.05;;;10.00;99.90;;;;;;4973177;28;20140;-76
2023/11/14 06:22:03;;;;;;;3.35;2.10;;;10.00;99.90;;;;;;4980027;28;20110;-78
2023/11/14 06:24:29;;;;;;;2.63;1.77;;;10.00;99.90;;;;;;4979000;28;20726;-77
2023/11/14 06:27:00;;;;;;;4.00;1.73;;;9.90;99.90;;;;;;4996048;28;20030;-78
2023/11/14 06:29:27;;;;;;;1.77;1.63;;;9.90;99.90;;;;;;4980984;28;20476;-76
2023/11/14 06:31:52;;;;;;;2.05;1.10;;;9.90;99.90;;;;;;4979690;28;20038;-77
2023/11/14 06:34:21;;;;;;;1.08;0.98;;;9.90;99.90;;;;;;4979437;28;20508;-77
2023/11/14 06:36:47;;;;;;;2.92;1.10;;;9.90;99.90;;;;;;4975357;28;20051;-77
2023/11/14 06:39:13;;;;;;;1.88;1.20;;;9.90;99.90;;;;;;4981315;28;20038;-76
2023/11/14 06:41:39;;;;;;;2.00;1.48;;;9.90;99.90;;;;;;4980651;28;20122;-76
2023/11/14 06:44:11;;;;;;;1.30;1.20;;;9.90;99.90;;;;;;4990474;28;20026;-78
2023/11/14 06:46:37;;;;;;;4.53;3.47;;;9.80;99.90;;;;;;4989091;28;20114;-77
2023/11/14 06:49:06;;;;;;;2.50;1.50;;;9.80;99.90;;;;;;4989010;28;20427;-78
2023/11/14 06:51:37;;;;;;;1.70;0.80;;;9.80;99.90;;;;;;4984708;28;20003;-78
2023/11/14 06:54:07;;;;;;;3.25;0.90;;;9.80;99.90;;;;;;4990249;28;20018;-77
2023/11/14 06:56:39;;;;;;;0.80;0.80;;;9.80;99.90;;;;;;4990018;28;20069;-76
2023/11/14 06:59:05;;;;;;;1.48;0.90;;;9.80;99.90;;;;;;4993133;28;20163;-78
2023/11/14 07:01:32;;;;;;;1.20;0.98;;;9.80;99.90;;;;;;4986790;28;20042;-77
2023/11/14 07:04:45;;;;;;;1.02;1.00;;;9.90;99.90;;;;;;4986635;28;20007;-76
2023/11/14 07:07:12;;;;;;;1.48;0.80;;;9.80;99.90;;;;;;4963212;28;20103;-76
2023/11/14 07:09:38;;;;;;;0.90;0.77;;;9.80;99.90;;;;;;4955229;28;20160;-75
2023/11/14 07:12:07;;;;;;;2.60;0.90;;;9.80;99.90;;;;;;4988553;28;20047;-76
2023/11/14 07:14:33;;;;;;;2.40;0.90;;;9.90;99.90;;;;;;4984470;28;20038;-78
2023/11/14 07:17:11;;;;;;;1.00;1.00;;;9.80;99.90;;;;;;4975095;28;20023;-76
2023/11/14 07:19:43;;;;;;;1.10;0.95;;;9.90;99.90;;;;;;4975796;28;20030;-76
2023/11/14 07:22:09;;;;;;;2.20;0.90;;;9.90;99.90;;;;;;4981935;28;20027;-76
2023/11/14 07:24:35;;;;;;;2.40;0.90;;;9.90;99.90;;;;;;4976235;28;20023;-76
2023/11/14 07:27:15;;;;;;;0.70;0.70;;;9.90;99.90;;;;;;4973748;28;20110;-76
2023/11/14 07:29:41;;;;;;;1.20;1.20;;;9.90;99.90;;;;;;4990052;28;20031;-76
2023/11/14 07:32:08;;;;;;;1.05;0.80;;;10.00;99.90;;;;;;4976958;28;20480;-76
2023/11/14 07:34:34;;;;;;;1.58;0.93;;;10.00;99.90;;;;;;4973869;28;20034;-75
2023/11/14 07:37:14;;;;;;;0.80;0.80;;;10.00;99.90;;;;;;4984228;28;20044;-76
2023/11/14 07:39:57;;;;;;;1.52;1.10;;;10.00;99.90;;;;;;4989512;28;20495;-75
2023/11/14 07:42:30;;;;;;;3.60;0.88;;;10.00;99.90;;;;;;4979405;28;20105;-77
2023/11/14 07:45:30;;;;;;;;;;;;;;;;;;;;;
2023/11/14 07:48:26;;;;;;;1.27;0.77;;;10.00;99.90;;;;;;4975308;28;20103;-77
2023/11/14 07:50:58;;;;;;;1.52;0.90;;;10.00;99.90;;;;;;4985255;28;20119;-76
2023/11/14 07:53:53;;;;;;;;;;;;;;;;;;;;;
2023/11/14 07:59:58;;;;;;;1.40;1.00;;;10.00;99.90;;;;;;4933594;29;20032;-76
2023/11/14 08:02:49;;;;;;;0.98;0.80;;;10.10;99.90;;;;;;4963778;28;20642;-76
2023/11/14 08:05:31;;;;;;;0.57;0.57;;;10.00;99.90;;;;;;4973308;28;20046;-75
2023/11/14 08:11:42;;;;;;;0.80;0.80;;;10.00;99.90;;;;;;4953039;28;20086;-76
2023/11/14 08:14:12;;;;;;;1.77;0.80;;;10.00;99.90;;;;;;4970115;28;20034;-75
2023/11/14 08:16:52;;;;;;;0.70;0.70;;;10.10;99.90;;;;;;4969347;28;20027;-74
2023/11/14 08:19:18;;;;;;;0.98;0.77;;;10.20;99.90;;;;;;4969198;28;20027;-75
2023/11/14 08:21:44;;;;;;;1.75;1.10;;;10.20;99.90;;;;;;4987310;28;20035;-76
2023/11/14 08:24:10;;;;;;;0.60;0.60;;;10.20;99.90;;;;;;4971894;28;20419;-75
2023/11/14 08:26:36;;;;;;;0.70;0.70;;;10.20;99.90;;;;;;4964855;28;20046;-76
2023/11/14 08:29:05;;;;;;;0.80;0.80;;;10.20;99.90;;;;;;4974995;28;20440;-74
2023/11/14 08:31:31;;;;;;;1.38;1.00;;;10.30;99.90;;;;;;4958315;28;20025;-75
2023/11/14 08:34:00;;;;;;;0.70;0.70;;;10.30;99.90;;;;;;4979854;28;20038;-76
2023/11/14 08:37:07;;;;;;;;;;;;;;;;;;;;;
2023/11/14 08:40:01;;;;;;;1.13;0.50;;;10.20;99.90;;;;;;4971444;28;20022;-75
2023/11/14 08:42:34;;;;;;;0.65;0.65;;;10.30;99.90;;;;;;4971389;28;20066;-75
2023/11/14 08:48:23;;;;;;;0.90;0.90;;;10.30;99.90;;;;;;4951121;28;20602;-76
2023/11/14 08:51:10;;;;;;;0.68;0.60;;;10.30;99.90;;;;;;4952833;28;20024;-75
2023/11/14 08:53:36;;;;;;;0.63;0.63;;;10.40;99.90;;;;;;4966945;28;20034;-76
2023/11/14 08:56:08;;;;;;;2.00;0.88;;;10.40;99.90;;;;;;4971476;28;20194;-75
2023/11/14 08:58:34;;;;;;;0.85;0.85;;;10.40;99.90;;;;;;4967511;28;20391;-74
2023/11/14 09:01:00;;;;;;;1.02;0.60;;;10.40;99.90;;;;;;4970522;28;20035;-75
2023/11/14 09:10:13;;;;;;;1.63;1.45;;;10.30;99.90;;;;;;4967601;28;20114;-75
2023/11/14 09:12:42;;;;;;;0.60;0.60;;;10.30;99.90;;;;;;4968685;28;20114;-74
2023/11/14 09:15:13;;;;;;;0.68;0.65;;;10.30;99.90;;;;;;4960301;28;20094;-76
2023/11/14 09:17:42;;;;;;;1.50;1.00;;;10.30;99.90;;;;;;4982663;28;20034;-74
2023/11/14 09:20:16;;;;;;;3.03;0.80;;;10.20;99.90;;;;;;4972715;28;20126;-74
2023/11/14 09:22:42;;;;;;;0.68;0.68;;;10.20;99.90;;;;;;4975341;28;20038;-76
2023/11/14 09:25:08;;;;;;;4.00;1.02;;;10.20;99.90;;;;;;4963734;28;20023;-74
2023/11/14 09:27:34;;;;;;;0.70;0.70;;;10.10;99.90;;;;;;4966195;28;20027;-76
2023/11/14 09:30:00;;;;;;;1.75;0.80;;;10.10;99.90;;;;;;4969309;28;20042;-75
2023/11/14 09:32:28;;;;;;;1.23;0.82;;;10.10;99.90;;;;;;4976602;28;20417;-74
2023/11/14 09:35:33;;;;;;;;;;;;;;;;;;;;;
2023/11/14 09:37:57;;;;;;;3.40;0.70;;;10.00;99.90;;;;;;4958816;28;20047;-74
2023/11/14 09:43:47;;;;;;;4.32;0.70;;;10.00;99.90;;;;;;4952776;28;20030;-74
2023/11/14 09:46:19;;;;;;;0.77;0.77;;;10.00;99.90;;;;;;4970620;28;20523;-74
2023/11/14 09:48:45;;;;;;;3.50;0.73;;;9.90;99.90;;;;;;4971618;28;20102;-74
2023/11/14 09:51:16;;;;;;;0.77;0.77;;;9.90;99.90;;;;;;4969125;28;20028;-75
2023/11/14 09:53:44;;;;;;;0.75;0.75;;;10.00;99.90;;;;;;4966798;28;20174;-75
2023/11/14 09:56:10;;;;;;;0.95;0.50;;;10.00;99.90;;;;;;4962200;28;20743;-75
2023/11/14 09:59:09;;;;;;;1.75;0.70;;;10.10;99.90;;;;;;4969129;28;20039;-74
2023/11/14 10:04:37;;;;;;;0.93;0.50;;;10.20;99.90;;;;;;4963036;28;20153;-73
2023/11/14 10:07:04;;;;;;;1.85;0.93;;;10.30;99.90;;;;;;4963788;28;20055;-74
2023/11/14 10:09:49;;;;;;;1.67;0.77;;;10.30;99.90;;;;;;4964827;28;20015;-73
2023/11/14 10:19:33;;;;;;;2.55;0.70;;;10.30;99.90;;;;;;4946544;28;20034;-74
2023/11/14 10:22:07;;;;;;;1.00;0.80;;;10.30;99.90;;;;;;4961899;28;20479;-76
2023/11/14 10:24:35;;;;;;;0.50;0.50;;;10.40;99.90;;;;;;4961840;28;20022;-74
2023/11/14 10:27:04;;;;;;;;;;;10.40;99.90;;;;;;4968080;28;20026;-73
2023/11/14 10:29:30;;;;;;;1.45;0.70;;;10.40;99.90;;;;;;4971734;28;20020;-74
2023/11/14 10:31:56;;;;;;;3.75;0.70;;;10.40;99.90;;;;;;4970046;28;20035;-74
2023/11/14 10:34:54;;;;;;;0.82;0.60;;;10.40;99.90;;;;;;4960968;28;20019;-74
2023/11/14 10:37:33;;;;;;;0.68;0.60;;;10.40;99.90;;;;;;4976075;28;20034;-73
2023/11/14 10:40:06;;;;;;;1.42;0.60;;;10.50;99.90;;;;;;4962203;28;20023;-73
2023/11/14 10:42:37;;;;;;;0.63;0.63;;;10.50;99.90;;;;;;4964520;28;20034;-73
2023/11/14 10:45:07;;;;;;;1.58;0.70;;;10.50;99.90;;;;;;4967958;28;20050;-74
2023/11/14 10:47:38;;;;;;;0.68;0.50;;;10.50;99.90;;;;;;4967276;28;20094;-74
2023/11/14 10:50:28;;;;;;;0.65;0.65;;;10.50;99.90;;;;;;4963847;28;20065;-74
2023/11/14 10:52:54;;;;;;;1.27;0.50;;;10.50;99.90;;;;;;4960655;28;20035;-73
2023/11/14 10:55:27;;;;;;;2.95;0.70;;;10.40;99.90;;;;;;4968373;28;20030;-74
2023/11/14 10:57:57;;;;;;;1.05;0.50;;;10.40;99.90;;;;;;4960674;28;20042;-73
2023/11/14 11:00:24;;;;;;;3.10;0.73;;;10.40;99.90;;;;;;4963151;28;20519;-73
2023/11/14 11:02:53;;;;;;;0.73;0.65;;;10.40;99.90;;;;;;4964239;28;20043;-74
2023/11/14 11:05:20;;;;;;;;;;;10.40;99.90;;;;;;4963852;28;20030;-74
2023/11/14 11:07:48;;;;;;;0.50;0.50;;;10.40;99.90;;;;;;4968820;28;20016;-73
2023/11/14 11:10:16;;;;;;;0.40;0.40;;;10.40;99.90;;;;;;4965634;28;20121;-74
2023/11/14 11:12:45;;;;;;;0.60;0.60;;;10.40;99.90;;;;;;4967603;28;20664;-75
2023/11/14 11:15:10;;;;;;;;;;;10.50;99.90;;;;;;4981744;28;20027;-74
2023/11/14 11:17:46;;;;;;;0.70;0.70;;;10.40;99.90;;;;;;4960765;28;19921;-74
2023/11/14 11:20:26;;;;;;;0.93;0.63;;;10.50;99.90;;;;;;4982474;28;20117;-74
2023/11/14 11:23:08;;;;;;;0.75;0.75;;;10.50;99.90;;;;;;4978054;28;20049;-73
2023/11/14 11:25:35;;;;;;;0.70;0.70;;;10.50;99.90;;;;;;4962107;28;20129;-74
2023/11/14 11:28:32;;;;;;;0.90;0.68;;;10.50;99.90;;;;;;4968061;28;20324;-73
2023/11/14 11:31:14;;;;;;;1.17;0.70;;;10.50;99.90;;;;;;4955950;28;20055;-72
2023/11/14 11:33:42;;;;;;;0.60;0.60;;;10.50;99.90;;;;;;4962327;28;20058;-73
2023/11/14 11:36:29;;;;;;;0.80;0.70;;;10.60;99.90;;;;;;4961583;28;20035;-73
2023/11/14 11:39:09;;;;;;;1.08;0.70;;;10.60;99.90;;;;;;4962459;28;21081;-73
2023/11/14 11:41:55;;;;;;;0.80;0.80;;;10.60;99.90;;;;;;4958271;28;20258;-74
2023/11/14 11:44:41;;;;;;;0.95;0.70;;;10.60;99.90;;;;;;4963710;28;20161;-73
2023/11/14 11:47:34;;;;;;;0.70;0.70;;;10.60;99.90;;;;;;4968063;28;20129;-74
2023/11/14 11:50:03;;;;;;;1.10;0.75;;;10.70;99.90;;;;;;4955540;28;20023;-73
2023/11/14 11:52:32;;;;;;;2.15;0.60;;;10.70;99.90;;;;;;4968609;28;20023;-73
2023/11/14 11:55:19;;;;;;;0.85;0.68;;;10.70;99.90;;;;;;4966521;28;20089;-72
2023/11/14 11:57:46;;;;;;;0.85;0.60;;;10.70;99.90;;;;;;4956658;28;20031;-73
2023/11/14 12:00:15;;;;;;;0.63;0.60;;;10.70;99.90;;;;;;4959420;28;20618;-72
2023/11/14 12:02:41;;;;;;;;;;;10.70;99.90;;;;;;4964859;28;20062;-73
2023/11/14 12:05:10;;;;;;;0.75;0.60;;;10.70;99.90;;;;;;4967735;28;19914;-74
2023/11/14 12:07:36;;;;;;;0.68;0.68;;;10.70;99.90;;;;;;4961843;28;20047;-73
2023/11/14 12:10:01;;;;;;;0.82;0.82;;;10.70;99.90;;;;;;4971806;28;20031;-73
2023/11/14 12:12:34;;;;;;;0.63;0.55;;;10.70;99.90;;;;;;4971309;28;20031;-73
2023/11/14 12:15:04;;;;;;;2.13;0.70;;;10.70;99.90;;;;;;4968558;28;20026;-73
2023/11/14 12:17:30;;;;;;;0.70;0.70;;;10.70;99.90;;;;;;4964284;28;20030;-72
2023/11/14 12:20:00;;;;;;;1.35;0.60;;;10.60;99.90;;;;;;4960828;28;20259;-73
2023/11/14 12:22:31;;;;;;;0.60;0.60;;;10.70;99.90;;;;;;4961447;28;20101;-73
2023/11/14 12:25:02;;;;;;;0.73;0.70;;;10.70;99.90;;;;;;4961301;28;20517;-72
2023/11/14 12:27:28;;;;;;;0.52;0.52;;;10.70;99.90;;;;;;4963291;28;20035;-73
2023/11/14 12:30:11;;;;;;;0.75;0.70;;;10.70;99.90;;;;;;4969037;28;20396;-72
2023/11/14 12:32:37;;;;;;;2.15;0.90;;;10.70;99.90;;;;;;4976386;28;20031;-73
2023/11/14 12:35:12;;;;;;;0.45;0.45;;;10.60;99.90;;;;;;4963785;28;20542;-73
2023/11/14 12:37:38;;;;;;;0.43;0.43;;;10.60;99.90;;;;;;4953750;28;20417;-72
2023/11/14 12:40:10;;;;;;;2.05;1.00;;;10.60;99.90;;;;;;4958724;28;20038;-73
2023/11/14 12:42:40;;;;;;;0.70;0.70;;;10.60;99.90;;;;;;4962474;28;20035;-73
2023/11/14 12:45:10;;;;;;;0.50;0.50;;;10.60;99.90;;;;;;4965108;28;20035;-72
2023/11/14 12:47:39;;;;;;;0.82;0.80;;;10.60;99.90;;;;;;4966961;28;20081;-72
2023/11/14 12:50:11;;;;;;;1.55;0.75;;;10.60;99.90;;;;;;4960145;28;20116;-72
2023/11/14 12:52:41;;;;;;;0.82;0.70;;;10.60;99.90;;;;;;4959010;28;20154;-72
2023/11/14 12:55:10;;;;;;;1.75;1.08;;;10.60;99.90;;;;;;4964676;28;20408;-73
2023/11/14 12:57:35;;;;;;;0.70;0.70;;;10.60;99.90;;;;;;4966119;28;20064;-73
2023/11/14 13:00:01;;;;;;;0.68;0.68;;;10.60;99.90;;;;;;4959523;28;20084;-73
2023/11/14 13:02:27;;;;;;;0.63;0.63;;;10.60;99.90;;;;;;4962681;28;20031;-73
2023/11/14 13:04:59;;;;;;;0.70;0.57;;;10.60;99.90;;;;;;4964420;28;20043;-72
2023/11/14 13:07:25;;;;;;;0.80;0.80;;;10.60;99.90;;;;;;4968847;28;20039;-73
2023/11/14 13:09:51;;;;;;;5.07;0.70;;;10.70;99.90;;;;;;4968852;28;20121;-73
2023/11/14 13:12:23;;;;;;;0.75;0.55;;;10.70;99.90;;;;;;4984893;28;20058;-73
2023/11/14 13:14:49;;;;;;;0.65;0.52;;;10.70;99.90;;;;;;4979273;28;22103;-73
2023/11/14 13:17:18;;;;;;;1.10;0.50;;;10.70;99.90;;;;;;4967872;28;20113;-73
2023/11/14 13:19:44;;;;;;;0.63;0.57;;;10.70;99.90;;;;;;4961734;28;20026;-73
2023/11/14 13:22:10;;;;;;;0.57;0.57;;;10.70;99.90;;;;;;4962383;28;20031;-73
2023/11/14 13:24:36;;;;;;;0.60;0.60;;;10.60;99.90;;;;;;4968209;28;20069;-73
2023/11/14 13:27:03;;;;;;;0.80;0.80;;;10.60;99.90;;;;;;4966409;28;20214;-73
2023/11/14 13:29:50;;;;;;;0.73;0.50;;;10.60;99.90;;;;;;4965146;28;20042;-73
2023/11/14 13:32:16;;;;;;;1.50;0.90;;;10.50;99.90;;;;;;4968256;28;20404;-73
2023/11/14 13:34:45;;;;;;;0.43;0.40;;;10.50;99.90;;;;;;4969274;28;20023;-74
2023/11/14 13:37:23;;;;;;;0.80;0.60;;;10.40;99.90;;;;;;4969940;28;20019;-73